createdAt,value
2018-04-12T00:01:57.377Z,76.30
2018-04-12T00:04:24.909Z,76.30
2018-04-12T00:06:52.421Z,76.50
2018-04-12T00:09:20.042Z,75.50
2018-04-12T00:11:47.604Z,75.50
2018-04-12T00:14:15.144Z,75.30
2018-04-12T00:16:43.419Z,75.10
2018-04-12T00:19:10.957Z,75.00
2018-04-12T00:21:38.484Z,75.60
2018-04-12T00:24:06.028Z,74.60
2018-04-12T00:26:33.949Z,75.10
2018-04-12T00:29:01.462Z,74.70
2018-04-12T00:31:28.968Z,73.60
2018-04-12T00:33:57.273Z,73.60
2018-04-12T00:36:25.528Z,74.00
2018-04-12T00:38:53.099Z,74.00
2018-04-12T00:41:20.628Z,74.00
2018-04-12T00:43:48.135Z,74.00
2018-04-12T00:46:15.628Z,74.40
2018-04-12T00:48:43.160Z,74.90
2018-04-12T00:51:10.665Z,74.90
2018-04-12T00:53:50.036Z,75.10
2018-04-12T00:56:17.539Z,75.60
2018-04-12T00:58:45.049Z,75.60
2018-04-12T01:01:12.577Z,76.40
2018-04-12T01:03:40.104Z,75.60
2018-04-12T01:06:07.608Z,75.80
2018-04-12T01:08:35.136Z,74.70
2018-04-12T01:11:02.685Z,74.20
2018-04-12T01:13:30.220Z,74.30
2018-04-12T01:15:57.749Z,75.00
2018-04-12T01:18:25.303Z,75.00
2018-04-12T01:20:52.820Z,75.40
2018-04-12T01:23:20.340Z,75.20
2018-04-12T01:25:47.871Z,75.20
2018-04-12T01:28:15.408Z,75.50
2018-04-12T01:30:42.949Z,75.80
2018-04-12T01:33:17.203Z,75.50
2018-04-12T01:35:44.720Z,76.20
2018-04-12T01:38:12.254Z,75.50
2018-04-12T01:40:39.757Z,75.40
2018-04-12T01:43:07.309Z,75.20
2018-04-12T01:45:35.587Z,75.80
2018-04-12T01:48:03.111Z,76.60
2018-04-12T01:50:30.637Z,76.00
2018-04-12T01:52:58.192Z,76.20
2018-04-12T01:55:25.704Z,75.40
2018-04-12T01:57:53.227Z,75.60
2018-04-12T02:00:21.516Z,75.70
2018-04-12T02:02:49.051Z,75.70
2018-04-12T02:05:16.543Z,74.70
2018-04-12T02:07:44.063Z,74.20
2018-04-12T02:10:11.569Z,74.30
2018-04-12T02:12:39.059Z,74.40
2018-04-12T02:15:07.321Z,74.60
2018-04-12T02:17:34.854Z,74.60
2018-04-12T02:20:03.487Z,74.40
2018-04-12T02:22:31.024Z,74.30
2018-04-12T02:24:58.532Z,74.20
2018-04-12T02:27:26.068Z,75.80
2018-04-12T02:29:53.577Z,74.90
2018-04-12T02:32:21.909Z,75.50
2018-04-12T02:34:49.448Z,75.40
2018-04-12T02:37:16.976Z,75.30
2018-04-12T02:39:44.511Z,75.40
2018-04-12T02:42:12.051Z,75.20
2018-04-12T02:44:39.549Z,75.40
2018-04-12T02:47:07.047Z,75.60
2018-04-12T02:49:34.580Z,75.30
2018-04-12T02:52:02.885Z,75.10
2018-04-12T02:54:31.189Z,74.40
2018-04-12T02:56:59.505Z,74.70
2018-04-12T02:59:27.040Z,74.60
2018-04-12T03:01:54.581Z,73.90
2018-04-12T03:04:22.906Z,74.20
2018-04-12T03:06:50.417Z,74.20
2018-04-12T03:09:17.948Z,74.30
2018-04-12T03:11:46.249Z,74.30
2018-04-12T03:14:14.548Z,74.60
2018-04-12T03:16:42.104Z,74.50
2018-04-12T03:19:09.630Z,74.50
2018-04-12T03:21:37.908Z,75.80
2018-04-12T03:24:05.449Z,75.80
2018-04-12T03:26:33.004Z,76.00
2018-04-12T03:29:00.597Z,76.30
2018-04-12T03:31:28.101Z,75.80
2018-04-12T03:33:55.641Z,76.40
2018-04-12T03:36:23.131Z,76.80
2018-04-12T03:38:50.642Z,76.90
2018-04-12T03:41:18.149Z,76.30
2018-04-12T03:43:45.655Z,76.40
2018-04-12T03:46:13.185Z,77.60
2018-04-12T03:48:41.489Z,76.90
2018-04-12T03:51:08.964Z,76.90
2018-04-12T03:53:37.283Z,76.80
2018-04-12T03:56:04.811Z,76.80
2018-04-12T03:58:32.299Z,76.80
2018-04-12T04:00:59.772Z,76.70
2018-04-12T04:03:27.247Z,77.20
2018-04-12T04:05:55.509Z,77.10
2018-04-12T04:08:23.007Z,77.00
2018-04-12T04:10:50.506Z,77.40
2018-04-12T04:13:18.012Z,77.40
2018-04-12T04:15:57.460Z,77.30
2018-04-12T04:18:36.944Z,77.00
2018-04-12T04:21:09.977Z,77.60
2018-04-12T04:23:37.502Z,77.70
2018-04-12T04:26:05.056Z,77.70
2018-04-12T04:28:32.560Z,78.10
2018-04-12T04:31:01.686Z,76.60
2018-04-12T04:33:29.192Z,76.20
2018-04-12T04:35:56.728Z,76.20
2018-04-12T04:38:24.259Z,75.50
2018-04-12T04:40:51.765Z,74.90
2018-04-12T04:43:19.288Z,74.80
2018-04-12T04:45:46.831Z,74.50
2018-04-12T04:48:14.389Z,75.10
2018-04-12T04:50:41.875Z,75.40
2018-04-12T04:53:09.377Z,75.70
2018-04-12T04:55:36.901Z,76.20
2018-04-12T04:58:05.163Z,77.20
2018-04-12T05:00:32.929Z,76.50
2018-04-12T05:03:00.434Z,76.20
2018-04-12T05:05:27.995Z,76.80
2018-04-12T05:07:58.883Z,75.90
2018-04-12T05:10:26.411Z,76.30
2018-04-12T05:12:53.959Z,75.80
2018-04-12T05:15:21.487Z,75.80
2018-04-12T05:17:49.024Z,75.40
2018-04-12T05:20:22.468Z,74.90
2018-04-12T05:22:49.983Z,75.40
2018-04-12T05:25:17.525Z,76.20
2018-04-12T05:27:45.822Z,76.90
2018-04-12T05:30:13.398Z,76.90
2018-04-12T05:32:40.941Z,77.20
2018-04-12T05:35:08.536Z,77.50
2018-04-12T05:37:50.136Z,77.80
2018-04-12T05:40:30.825Z,77.40
2018-04-12T05:42:58.325Z,77.70
2018-04-12T05:45:25.849Z,76.90
2018-04-12T05:47:53.360Z,76.40
2018-04-12T05:50:20.889Z,75.40
2018-04-12T05:52:48.458Z,74.20
2018-04-12T05:55:16.013Z,71.70
2018-04-12T05:57:43.597Z,70.30
2018-04-12T06:00:19.313Z,68.30
2018-04-12T06:02:46.842Z,66.70
2018-04-12T06:05:15.220Z,63.50
2018-04-12T06:07:42.932Z,63.40
2018-04-12T06:10:20.719Z,61.00
2018-04-12T06:12:48.969Z,58.50
2018-04-12T06:15:16.500Z,59.10
2018-04-12T06:17:44.036Z,58.00
2018-04-12T06:20:12.440Z,56.10
2018-04-12T06:22:39.966Z,56.00
2018-04-12T06:25:07.525Z,56.40
2018-04-12T06:27:35.063Z,57.30
2018-04-12T06:30:03.351Z,54.20
2018-04-12T06:32:30.873Z,54.80
2018-04-12T06:34:58.440Z,54.40
2018-04-12T06:37:26.823Z,55.70
2018-04-12T06:39:54.390Z,55.70
2018-04-12T06:42:21.908Z,56.10
2018-04-12T06:44:49.424Z,56.30
2018-04-12T06:47:17.710Z,52.40
2018-04-12T06:49:45.225Z,52.30
2018-04-12T06:52:13.491Z,51.90
2018-04-12T06:54:40.992Z,51.80
2018-04-12T06:57:08.508Z,51.30
2018-04-12T06:59:36.121Z,51.80
2018-04-12T07:02:03.623Z,52.20
2018-04-12T07:04:31.147Z,50.40
2018-04-12T07:06:58.672Z,48.90
2018-04-12T07:09:26.212Z,49.90
2018-04-12T07:11:53.757Z,50.20
2018-04-12T07:14:21.286Z,46.00
2018-04-12T07:16:48.805Z,47.20
2018-04-12T07:19:16.373Z,49.20
2018-04-12T07:21:44.681Z,48.20
2018-04-12T07:24:12.201Z,48.10
2018-04-12T07:26:39.728Z,43.60
2018-04-12T07:29:07.228Z,45.50
2018-04-12T07:31:34.763Z,47.40
2018-04-12T07:34:02.284Z,43.10
2018-04-12T07:36:29.789Z,45.00
2018-04-12T07:38:57.285Z,44.80
2018-04-12T07:41:25.570Z,46.70
2018-04-12T07:43:53.079Z,46.70
2018-04-12T07:46:21.373Z,45.00
2018-04-12T07:48:49.677Z,47.20
2018-04-12T07:51:17.964Z,48.60
2018-04-12T07:53:45.474Z,48.50
2018-04-12T07:56:13.749Z,45.70
2018-04-12T07:58:41.276Z,45.70
2018-04-12T08:01:08.833Z,45.50
2018-04-12T08:03:36.353Z,44.00
2018-04-12T08:06:03.914Z,44.00
2018-04-12T08:08:32.244Z,44.30
2018-04-12T08:10:59.771Z,44.20
2018-04-12T08:13:27.308Z,43.10
2018-04-12T08:15:55.580Z,43.80
2018-04-12T08:18:23.156Z,43.80
2018-04-12T08:20:50.696Z,42.60
2018-04-12T08:23:18.188Z,41.20
2018-04-12T08:25:45.705Z,41.40
2018-04-12T08:28:13.208Z,42.50
2018-04-12T08:30:40.712Z,43.50
2018-04-12T08:33:08.224Z,40.70
2018-04-12T08:35:35.769Z,38.20
2018-04-12T08:38:03.297Z,38.50
2018-04-12T08:40:30.799Z,38.00
2018-04-12T08:42:58.330Z,37.50
2018-04-12T08:45:25.861Z,39.10
2018-04-12T08:47:53.395Z,40.00
2018-04-12T08:50:20.903Z,38.60
2018-04-12T08:52:49.188Z,39.40
2018-04-12T08:55:16.742Z,39.40
2018-04-12T08:57:44.270Z,41.40
2018-04-12T09:00:11.778Z,40.70
2018-04-12T09:02:39.334Z,42.60
2018-04-12T09:05:06.893Z,41.20
2018-04-12T09:07:34.425Z,42.50
2018-04-12T09:10:02.724Z,45.50
2018-04-12T09:12:30.245Z,45.30
2018-04-12T09:14:57.755Z,44.90
2018-04-12T09:17:25.272Z,46.90
2018-04-12T09:19:53.564Z,47.50
2018-04-12T09:22:21.109Z,47.50
2018-04-12T09:24:48.624Z,48.60
2018-04-12T09:27:16.165Z,49.50
2018-04-12T09:29:43.667Z,51.30
2018-04-12T09:32:11.217Z,51.00
2018-04-12T09:34:39.522Z,48.40
2018-04-12T09:37:07.058Z,48.20
2018-04-12T09:39:35.467Z,48.60
2018-04-12T09:42:03.007Z,49.40
2018-04-12T09:44:30.549Z,49.50
2018-04-12T09:46:58.056Z,48.20
2018-04-12T09:49:25.652Z,48.10
2018-04-12T09:51:53.143Z,46.60
2018-04-12T09:54:21.409Z,42.80
2018-04-12T09:56:48.940Z,42.50
2018-04-12T09:59:16.479Z,42.50
2018-04-12T10:01:49.755Z,38.40
2018-04-12T10:04:17.299Z,40.30
2018-04-12T10:06:51.305Z,39.60
2018-04-12T10:09:18.837Z,39.60
2018-04-12T10:11:47.151Z,38.80
2018-04-12T10:14:14.679Z,38.70
2018-04-12T10:16:42.219Z,40.30
2018-04-12T10:19:10.498Z,44.70
2018-04-12T10:21:38.763Z,44.20
2018-04-12T10:24:06.302Z,44.10
2018-04-12T10:26:34.383Z,37.80
2018-04-12T10:29:02.657Z,35.50
2018-04-12T10:31:30.180Z,35.40
2018-04-12T10:33:57.709Z,34.90
2018-04-12T10:36:25.228Z,37.00
2018-04-12T10:38:53.503Z,37.00
2018-04-12T10:41:21.014Z,36.90
2018-04-12T10:43:49.316Z,38.90
2018-04-12T10:46:17.622Z,35.40
2018-04-12T10:48:45.968Z,34.00
2018-04-12T10:51:13.465Z,33.80
2018-04-12T10:53:41.003Z,29.70
2018-04-12T10:56:08.547Z,31.00
2018-04-12T10:58:36.096Z,34.60
2018-04-12T11:01:04.373Z,37.00
2018-04-12T11:03:31.926Z,37.00
2018-04-12T11:05:59.466Z,37.70
2018-04-12T11:08:26.984Z,32.50
2018-04-12T11:10:54.567Z,32.50
2018-04-12T11:13:22.102Z,33.60
2018-04-12T11:15:49.628Z,37.30
2018-04-12T11:18:17.158Z,34.50
2018-04-12T11:20:44.675Z,36.90
2018-04-12T11:23:12.209Z,35.40
2018-04-12T11:25:40.518Z,30.10
2018-04-12T11:28:08.802Z,30.10
2018-04-12T11:30:37.104Z,29.90
2018-04-12T11:33:05.402Z,29.70
2018-04-12T11:35:33.197Z,29.60
2018-04-12T11:38:00.696Z,30.80
2018-04-12T11:40:28.251Z,32.20
2018-04-12T11:42:56.589Z,30.50
2018-04-12T11:45:24.931Z,32.40
2018-04-12T11:47:53.224Z,31.80
2018-04-12T11:50:20.727Z,31.80
2018-04-12T11:52:48.241Z,33.20
2018-04-12T11:55:15.745Z,36.80
2018-04-12T11:57:43.407Z,37.20
2018-04-12T12:00:10.898Z,37.40
2018-04-12T12:02:39.097Z,38.00
2018-04-12T12:05:06.724Z,38.70
2018-04-12T12:07:34.340Z,41.50
2018-04-12T12:10:01.987Z,39.80
2018-04-12T12:12:29.507Z,39.60
2018-04-12T12:14:57.792Z,42.90
2018-04-12T12:17:25.398Z,42.80
2018-04-12T12:19:54.687Z,41.40
2018-04-12T12:22:22.986Z,41.30
2018-04-12T12:24:51.267Z,39.10
2018-04-12T12:27:18.900Z,39.00
2018-04-12T12:29:49.816Z,41.20
2018-04-12T12:32:18.227Z,40.70
2018-04-12T12:34:45.925Z,40.60
2018-04-12T12:37:13.526Z,41.70
2018-04-12T12:39:41.075Z,40.40
2018-04-12T12:42:08.745Z,40.90
2018-04-12T12:44:36.536Z,41.60
2018-04-12T12:47:04.195Z,43.30
2018-04-12T12:49:32.560Z,43.10
2018-04-12T12:52:00.874Z,43.00
2018-04-12T12:54:28.412Z,43.00
2018-04-12T12:56:56.014Z,44.30
2018-04-12T12:59:23.626Z,44.00
2018-04-12T13:01:52.717Z,45.00
2018-04-12T13:04:20.259Z,44.70
2018-04-12T13:06:47.793Z,46.90
2018-04-12T13:09:15.385Z,46.20
2018-04-12T13:11:42.908Z,47.50
2018-04-12T13:14:10.445Z,45.10
2018-04-12T13:16:38.049Z,46.00
2018-04-12T13:19:05.504Z,47.00
2018-04-12T13:21:33.036Z,47.00
2018-04-12T13:24:00.584Z,47.10
2018-04-12T13:26:28.114Z,46.00
2018-04-12T13:28:55.631Z,46.20
2018-04-12T13:31:23.173Z,44.20
2018-04-12T13:33:50.697Z,44.80
2018-04-12T13:36:24.870Z,44.00
2018-04-12T13:38:52.397Z,45.00
2018-04-12T13:41:19.925Z,45.60
2018-04-12T13:43:47.481Z,47.30
2018-04-12T13:46:14.976Z,46.10
2018-04-12T13:48:42.529Z,46.20
2018-04-12T13:51:10.163Z,48.80
2018-04-12T13:53:37.717Z,47.80
2018-04-12T13:56:05.280Z,49.50
2018-04-12T13:58:32.799Z,46.90
2018-04-12T14:01:00.328Z,48.00
2018-04-12T14:06:21.335Z,46.80
2018-04-12T14:08:48.868Z,46.70
2018-04-12T14:11:16.359Z,48.90
2018-04-12T14:13:43.885Z,48.80
2018-04-12T14:16:11.419Z,47.60
2018-04-12T14:18:38.941Z,48.60
2018-04-12T14:21:06.508Z,48.80
2018-04-12T14:23:34.117Z,47.30
2018-04-12T14:26:01.686Z,47.30
2018-04-12T14:28:29.239Z,48.10
2018-04-12T14:30:56.756Z,48.60
2018-04-12T14:33:24.341Z,47.90
2018-04-12T14:35:52.005Z,48.20
2018-04-12T14:38:19.526Z,46.30
2018-04-12T14:40:47.241Z,44.20
2018-04-12T14:43:15.562Z,44.30
2018-04-12T14:45:43.157Z,44.30
2018-04-12T14:48:10.806Z,45.00
2018-04-12T14:50:38.411Z,48.80
2018-04-12T14:53:06.120Z,49.70
2018-04-12T14:55:34.611Z,50.20
2018-04-12T14:58:02.153Z,50.10
2018-04-12T15:00:30.515Z,52.00
2018-04-12T15:02:58.149Z,51.50
2018-04-12T15:05:26.483Z,52.50
2018-04-12T15:07:57.156Z,52.50
2018-04-12T15:10:24.762Z,52.80
2018-04-12T15:12:52.281Z,54.50
2018-04-12T15:15:20.672Z,54.80
2018-04-12T15:17:48.351Z,54.70
2018-04-12T15:20:16.056Z,54.40
2018-04-12T15:22:43.617Z,54.40
2018-04-12T15:25:11.156Z,56.40
2018-04-12T15:27:38.701Z,56.40
2018-04-12T15:30:06.448Z,57.90
2018-04-12T15:32:34.340Z,56.70
2018-04-12T15:35:02.016Z,57.80
2018-04-12T15:37:29.540Z,58.40
2018-04-12T15:39:57.118Z,57.80
2018-04-12T15:42:24.703Z,58.10
2018-04-12T15:44:53.060Z,58.50
2018-04-12T15:47:20.600Z,58.40
2018-04-12T15:49:48.107Z,57.10
2018-04-12T15:52:15.677Z,56.80
2018-04-12T15:54:43.201Z,55.90
2018-04-12T15:57:10.784Z,56.00
2018-04-12T15:59:39.176Z,55.20
2018-04-12T16:02:07.776Z,55.90
2018-04-12T16:04:35.438Z,55.80
2018-04-12T16:07:03.036Z,56.20
2018-04-12T16:09:30.593Z,56.90
2018-04-12T16:11:58.137Z,57.00
2018-04-12T16:14:26.403Z,58.50
2018-04-12T16:16:53.982Z,57.90
2018-04-12T16:19:21.538Z,58.20
2018-04-12T16:21:49.067Z,58.30
2018-04-12T16:24:16.601Z,59.60
2018-04-12T16:26:44.888Z,59.40
2018-04-12T16:29:12.393Z,58.70
2018-04-12T16:31:40.696Z,58.40
2018-04-12T16:34:09.052Z,57.80
2018-04-12T16:36:36.642Z,57.80
2018-04-12T16:39:05.310Z,58.60
2018-04-12T16:41:33.931Z,59.80
2018-04-12T16:44:01.484Z,59.80
2018-04-12T16:46:29.040Z,60.20
2018-04-12T16:48:56.633Z,60.30
2018-04-12T16:51:24.953Z,59.60
2018-04-12T16:53:53.268Z,59.80
2018-04-12T16:56:21.568Z,60.50
2018-04-12T16:58:49.097Z,60.50
2018-04-12T17:01:16.608Z,61.40
2018-04-12T17:03:44.182Z,61.50
2018-04-12T17:06:18.919Z,61.60
2018-04-12T17:08:47.225Z,62.00
2018-04-12T17:11:14.811Z,61.90
2018-04-12T17:13:42.421Z,62.00
2018-04-12T17:16:09.929Z,62.00
2018-04-12T17:18:38.316Z,62.70
2018-04-12T17:21:06.057Z,62.70
2018-04-12T17:23:33.682Z,64.10
2018-04-12T17:26:01.303Z,65.00
2018-04-12T17:28:28.932Z,65.80
2018-04-12T17:30:56.532Z,65.60
2018-04-12T17:33:24.028Z,66.00
2018-04-12T17:35:51.555Z,67.60
2018-04-12T17:38:26.306Z,67.40
2018-04-12T17:40:53.972Z,67.30
2018-04-12T17:43:22.428Z,69.60
2018-04-12T17:45:49.953Z,69.50
2018-04-12T17:48:18.273Z,70.10
2018-04-12T17:50:45.943Z,70.80
2018-04-12T17:53:13.496Z,67.40
2018-04-12T17:55:41.109Z,68.10
2018-04-12T17:58:08.914Z,67.80
2018-04-12T18:00:37.263Z,68.20
2018-04-12T18:03:04.776Z,67.40
2018-04-12T18:05:33.129Z,69.10
2018-04-12T18:08:00.840Z,69.00
2018-04-12T18:10:28.371Z,70.00
2018-04-12T18:12:56.924Z,70.30
2018-04-12T18:15:24.445Z,68.90
2018-04-12T18:17:51.998Z,57.90
2018-04-12T18:20:19.549Z,53.90
2018-04-12T18:22:47.092Z,51.60
2018-04-12T18:25:14.724Z,52.80
2018-04-12T18:27:42.268Z,50.50
2018-04-12T18:30:11.706Z,50.60
2018-04-12T18:32:39.323Z,50.50
2018-04-12T18:35:06.880Z,51.10
2018-04-12T18:37:35.275Z,50.90
2018-04-12T18:40:02.956Z,50.80
2018-04-12T18:42:31.365Z,50.60
2018-04-12T18:44:58.896Z,50.60
2018-04-12T18:47:26.732Z,50.70
2018-04-12T18:49:54.835Z,51.00
2018-04-12T18:52:22.785Z,50.70
2018-04-12T18:54:50.690Z,51.10
2018-04-12T18:57:19.206Z,50.60
2018-04-12T18:59:46.800Z,50.60
2018-04-12T19:02:14.707Z,51.00
2018-04-12T19:04:42.312Z,51.20
2018-04-12T19:07:10.820Z,51.50
2018-04-12T19:09:38.417Z,51.30
2018-04-12T19:12:06.821Z,52.30
2018-04-12T19:14:34.357Z,52.30
2018-04-12T19:17:01.932Z,52.80
2018-04-12T19:19:29.444Z,53.50
2018-04-12T19:21:57.895Z,55.00
2018-04-12T19:24:25.550Z,54.90
2018-04-12T19:26:53.182Z,55.10
2018-04-12T19:29:20.729Z,55.70
2018-04-12T19:31:48.248Z,56.30
2018-04-12T19:34:15.747Z,57.20
2018-04-12T19:36:43.307Z,57.10
2018-04-12T19:39:10.870Z,58.00
2018-04-12T19:41:38.391Z,57.80
2018-04-12T19:44:05.965Z,59.10
2018-04-12T19:46:34.873Z,58.30
2018-04-12T19:49:02.404Z,57.70
2018-04-12T19:51:29.955Z,57.60
2018-04-12T19:53:57.489Z,57.40
2018-04-12T19:56:25.014Z,57.20
2018-04-12T19:58:53.297Z,58.10
2018-04-12T20:01:20.844Z,58.10
2018-04-12T20:03:48.463Z,58.80
2018-04-12T20:06:16.007Z,59.60
2018-04-12T20:08:44.291Z,62.00
2018-04-12T20:11:11.824Z,61.90
2018-04-12T20:13:39.373Z,62.70
2018-04-12T20:16:06.947Z,64.90
2018-04-12T20:18:34.503Z,64.20
2018-04-12T20:21:02.088Z,66.30
2018-04-12T20:23:29.639Z,67.90
2018-04-12T20:25:57.208Z,67.90
2018-04-12T20:28:24.747Z,67.70
2018-04-12T20:30:52.369Z,67.30
2018-04-12T20:33:19.934Z,68.20
2018-04-12T20:35:47.496Z,65.20
2018-04-12T20:38:15.034Z,68.00
2018-04-12T20:40:42.571Z,68.90
2018-04-12T20:43:10.109Z,67.60
2018-04-12T20:45:37.664Z,68.20
2018-04-12T20:48:05.272Z,69.40
2018-04-12T20:50:32.784Z,70.00
2018-04-12T20:53:01.101Z,70.50
2018-04-12T20:55:28.632Z,70.30
2018-04-12T20:57:56.161Z,73.20
2018-04-12T21:00:23.713Z,70.40
2018-04-12T21:02:51.235Z,70.20
2018-04-12T21:05:19.598Z,71.40
2018-04-12T21:07:50.219Z,71.50
2018-04-12T21:10:17.784Z,73.00
2018-04-12T21:12:45.325Z,75.00
2018-04-12T21:15:12.839Z,74.90
2018-04-12T21:17:41.103Z,74.90
2018-04-12T21:20:08.670Z,74.90
2018-04-12T21:22:36.232Z,72.70
2018-04-12T21:25:04.112Z,74.10
2018-04-12T21:27:32.452Z,76.30
2018-04-12T21:29:59.980Z,76.20
2018-04-12T21:32:29.518Z,76.60
2018-04-12T21:35:02.565Z,72.90
2018-04-12T21:37:36.574Z,69.80
2018-04-12T21:40:23.235Z,68.50
2018-04-12T21:42:50.732Z,68.30
2018-04-12T21:45:18.301Z,67.10
2018-04-12T21:47:45.792Z,66.80
2018-04-12T21:50:13.362Z,66.40
2018-04-12T21:52:40.889Z,65.20
2018-04-12T21:55:08.457Z,66.00
2018-04-12T21:57:36.011Z,67.90
2018-04-12T22:00:03.553Z,69.00
2018-04-12T22:02:31.059Z,71.30
2018-04-12T22:04:58.580Z,74.50
2018-04-12T22:07:26.148Z,75.00
2018-04-12T22:09:53.689Z,75.40
2018-04-12T22:12:21.195Z,77.60
2018-04-12T22:14:48.683Z,76.40
2018-04-12T22:17:16.224Z,79.20
2018-04-12T22:19:44.521Z,79.60
2018-04-12T22:22:12.816Z,79.60
2018-04-12T22:24:40.344Z,79.50
2018-04-12T22:27:07.896Z,78.30
2018-04-12T22:29:36.192Z,83.80
2018-04-12T22:32:04.496Z,83.70
2018-04-12T22:34:32.764Z,83.00
2018-04-12T22:37:00.288Z,82.90
2018-04-12T22:39:27.823Z,83.70
2018-04-12T22:41:55.344Z,82.90
2018-04-12T22:44:23.637Z,83.50
2018-04-12T22:46:51.192Z,83.50
2018-04-12T22:49:18.712Z,86.00
2018-04-12T22:51:46.995Z,86.30
2018-04-12T22:54:14.498Z,86.30
2018-04-12T22:56:42.828Z,87.40
2018-04-12T22:59:10.357Z,87.30
2018-04-12T23:01:37.914Z,87.10
2018-04-12T23:04:05.460Z,87.60
2018-04-12T23:06:33.818Z,88.80
2018-04-12T23:09:01.357Z,88.80
2018-04-12T23:11:28.882Z,90.00
2018-04-12T23:13:56.392Z,90.30
2018-04-12T23:16:23.877Z,90.20
2018-04-12T23:18:51.395Z,89.80
2018-04-12T23:21:18.889Z,90.60
2018-04-12T23:23:46.393Z,90.30
2018-04-12T23:26:13.916Z,90.40
2018-04-12T23:28:42.192Z,90.80
2018-04-12T23:31:09.719Z,90.60
2018-04-12T23:33:38.008Z,89.20
2018-04-12T23:36:05.549Z,89.20
2018-04-12T23:38:33.113Z,89.30
2018-04-12T23:41:00.655Z,89.20
2018-04-12T23:43:28.204Z,88.80
2018-04-12T23:45:55.696Z,89.00
2018-04-12T23:48:23.236Z,89.80
2018-04-12T23:50:50.786Z,90.50
2018-04-12T23:53:19.080Z,89.00
2018-04-12T23:55:46.618Z,89.00
2018-04-12T23:58:14.176Z,88.30
